createdAt,value
2023-02-16T00:00:31.461Z,95599.03
2023-02-16T00:02:58.716Z,95597.09
2023-02-16T00:05:31.309Z,95610.53
2023-02-16T00:07:59.122Z,95612.28
2023-02-16T00:10:29.744Z,95605.81
2023-02-16T00:13:14.976Z,95590.91
2023-02-16T00:15:42.306Z,95603.38
2023-02-16T00:18:18.740Z,95603.38
2023-02-16T00:20:46.546Z,95608.66
2023-02-16T00:23:13.286Z,95601.84
2023-02-16T00:25:43.009Z,95596.69
2023-02-16T00:28:19.901Z,95598.22
2023-02-16T00:30:47.306Z,95598.06
2023-02-16T00:33:21.091Z,95590.13
2023-02-16T00:35:48.892Z,95580.69
2023-02-16T00:38:17.097Z,95632.56
2023-02-16T00:40:44.218Z,95599.78
2023-02-16T00:43:26.633Z,95617.84
2023-02-16T00:45:54.006Z,95620.75
2023-02-16T00:48:21.855Z,95596.75
2023-02-16T00:50:49.000Z,95618.66
2023-02-16T00:53:15.814Z,95618.28
2023-02-16T00:55:45.360Z,95621.78
2023-02-16T00:58:30.972Z,95600.31
2023-02-16T01:01:06.869Z,95596.47
2023-02-16T01:03:34.014Z,95584.09
2023-02-16T01:06:19.862Z,95598.94
2023-02-16T01:09:04.897Z,95612.06
2023-02-16T01:11:31.764Z,95609.13
2023-02-16T01:13:58.545Z,95576.88
2023-02-16T01:16:38.885Z,95596.47
2023-02-16T01:19:05.869Z,95590.72
2023-02-16T01:21:33.020Z,95572.31
2023-02-16T01:24:00.805Z,95579.00
2023-02-16T01:26:27.658Z,95589.03
2023-02-16T01:28:54.463Z,95583.88
2023-02-16T01:31:21.377Z,95606.78
2023-02-16T01:33:48.298Z,95579.44
2023-02-16T01:36:37.337Z,95603.13
2023-02-16T01:39:05.362Z,95593.22
2023-02-16T01:42:11.430Z,95607.94
2023-02-16T01:44:48.898Z,95601.88
2023-02-16T01:47:29.780Z,95602.78
2023-02-16T01:49:56.630Z,95585.63
2023-02-16T01:52:33.192Z,95583.66
2023-02-16T01:55:14.177Z,95591.38
2023-02-16T01:57:53.105Z,95575.22
2023-02-16T02:00:49.041Z,95598.44
2023-02-16T02:03:45.276Z,95595.88
2023-02-16T02:06:32.266Z,95581.63
2023-02-16T02:09:17.874Z,95567.91
2023-02-16T02:11:56.900Z,95584.44
2023-02-16T02:14:43.976Z,95575.44
2023-02-16T02:17:16.308Z,95579.63
2023-02-16T02:20:07.430Z,95570.38
2023-02-16T02:23:05.987Z,95571.91
2023-02-16T02:26:20.526Z,95563.41
2023-02-16T02:29:20.914Z,95564.63
2023-02-16T02:32:11.379Z,95558.25
2023-02-16T02:35:24.667Z,95555.66
2023-02-16T02:38:19.947Z,95554.06
2023-02-16T02:41:50.208Z,95565.78
2023-02-16T02:44:21.846Z,95562.81
2023-02-16T02:46:49.144Z,95561.13
2023-02-16T02:49:16.529Z,95566.94
2023-02-16T02:51:43.317Z,95560.75
2023-02-16T02:54:41.292Z,95556.47
2023-02-16T02:57:53.782Z,95565.63
2023-02-16T03:00:44.098Z,95544.63
2023-02-16T03:03:24.528Z,95562.66
2023-02-16T03:06:05.826Z,95539.97
2023-02-16T03:08:35.925Z,95560.88
2023-02-16T03:11:36.353Z,95551.59
2023-02-16T03:14:10.274Z,95554.25
2023-02-16T03:16:46.972Z,95570.41
2023-02-16T03:19:36.447Z,95555.97
2023-02-16T03:22:22.652Z,95538.78
2023-02-16T03:25:08.069Z,95546.50
2023-02-16T03:27:59.664Z,95558.28
2023-02-16T03:30:28.158Z,95548.41
2023-02-16T03:32:55.319Z,95547.03
2023-02-16T03:35:22.402Z,95540.34
2023-02-16T03:37:49.544Z,95513.81
2023-02-16T03:40:30.081Z,95561.44
2023-02-16T03:43:00.179Z,95552.81
2023-02-16T03:45:27.743Z,95555.66
2023-02-16T03:47:55.071Z,95553.75
2023-02-16T03:50:22.374Z,95558.53
2023-02-16T03:52:49.406Z,95551.28
2023-02-16T03:55:16.577Z,95561.06
2023-02-16T03:57:43.327Z,95558.25
2023-02-16T04:00:11.269Z,95555.72
2023-02-16T04:02:38.086Z,95544.16
2023-02-16T04:05:05.125Z,95557.97
2023-02-16T04:07:31.985Z,95592.56
2023-02-16T04:09:58.867Z,95552.97
2023-02-16T04:12:37.572Z,95571.78
2023-02-16T04:15:14.836Z,95591.03
2023-02-16T04:17:41.652Z,95570.22
2023-02-16T04:20:13.545Z,95595.19
2023-02-16T04:22:40.423Z,95520.47
2023-02-16T04:25:08.752Z,95581.03
2023-02-16T04:27:36.980Z,95595.03
2023-02-16T04:30:06.170Z,95572.22
2023-02-16T04:32:33.089Z,95571.88
2023-02-16T04:34:59.999Z,95591.19
2023-02-16T04:37:26.777Z,95599.94
2023-02-16T04:39:53.609Z,95574.78
2023-02-16T04:42:20.525Z,95595.97
2023-02-16T04:44:47.283Z,95575.19
2023-02-16T04:47:14.458Z,95577.09
2023-02-16T04:49:41.211Z,95585.53
2023-02-16T04:52:08.268Z,95598.91
2023-02-16T04:54:35.390Z,95584.75
2023-02-16T04:57:02.205Z,95602.38
2023-02-16T04:59:28.987Z,95584.63
2023-02-16T05:01:55.817Z,95594.78
2023-02-16T05:04:22.570Z,95578.69
2023-02-16T05:06:49.368Z,95594.47
2023-02-16T05:09:16.414Z,95587.91
2023-02-16T05:12:01.715Z,95582.03
2023-02-16T05:14:47.626Z,95566.78
2023-02-16T05:17:22.510Z,95571.13
2023-02-16T05:19:58.980Z,95604.94
2023-02-16T05:22:26.602Z,95607.34
2023-02-16T05:24:53.387Z,95563.03
2023-02-16T05:27:27.220Z,95598.00
2023-02-16T05:29:54.405Z,95593.31
2023-02-16T05:32:21.691Z,95598.00
2023-02-16T05:34:48.606Z,95600.91
2023-02-16T05:37:17.937Z,95592.72
2023-02-16T05:39:45.460Z,95598.50
2023-02-16T05:42:13.084Z,95596.75
2023-02-16T05:44:40.015Z,95598.03
2023-02-16T05:47:07.057Z,95599.00
2023-02-16T05:49:33.829Z,95610.31
2023-02-16T05:52:00.576Z,95600.03
2023-02-16T05:54:28.185Z,95599.38
2023-02-16T05:56:55.193Z,95610.31
2023-02-16T05:59:22.237Z,95622.94
2023-02-16T06:01:51.851Z,95588.63
2023-02-16T06:04:20.237Z,95627.84
2023-02-16T06:06:47.084Z,95631.69
2023-02-16T06:09:13.840Z,95625.75
2023-02-16T06:11:40.958Z,95607.63
2023-02-16T06:14:17.029Z,95629.16
2023-02-16T06:16:47.623Z,95642.81
2023-02-16T06:19:16.580Z,95636.50
2023-02-16T06:21:44.094Z,95633.97
2023-02-16T06:24:13.316Z,95644.13
2023-02-16T06:26:41.169Z,95644.97
2023-02-16T06:29:09.364Z,95631.69
2023-02-16T06:31:37.004Z,95620.09
2023-02-16T06:34:05.024Z,95643.34
2023-02-16T06:36:32.852Z,95650.19
2023-02-16T06:38:59.721Z,95644.13
2023-02-16T06:41:32.379Z,95642.47
2023-02-16T06:44:05.947Z,95648.63
2023-02-16T06:46:33.343Z,95638.03
2023-02-16T06:49:00.422Z,95644.84
2023-02-16T06:51:27.975Z,95658.38
2023-02-16T06:53:54.957Z,95656.69
2023-02-16T06:56:22.402Z,95653.56
2023-02-16T06:58:49.542Z,95666.19
2023-02-16T07:01:23.095Z,95665.31
2023-02-16T07:03:52.128Z,95648.66
2023-02-16T07:06:20.434Z,95666.13
2023-02-16T07:08:47.565Z,95667.75
2023-02-16T07:11:14.754Z,95661.81
2023-02-16T07:13:41.673Z,95659.72
2023-02-16T07:16:08.507Z,95611.81
2023-02-16T07:18:36.077Z,95651.09
2023-02-16T07:21:03.197Z,95652.13
2023-02-16T07:23:30.386Z,95651.47
2023-02-16T07:25:57.117Z,95667.69
2023-02-16T07:28:24.577Z,95678.69
2023-02-16T07:30:51.670Z,95675.25
2023-02-16T07:33:19.040Z,95672.69
2023-02-16T07:35:45.865Z,95674.38
2023-02-16T07:38:13.165Z,95675.84
2023-02-16T07:40:39.968Z,95644.03
2023-02-16T07:43:06.896Z,95681.75
2023-02-16T07:45:34.245Z,95650.69
2023-02-16T07:48:02.334Z,95655.47
2023-02-16T07:50:29.181Z,95632.84
2023-02-16T07:52:55.983Z,95684.69
2023-02-16T07:55:22.842Z,95666.19
2023-02-16T07:57:52.955Z,95610.03
2023-02-16T08:00:20.605Z,95657.66
2023-02-16T08:02:47.468Z,95672.19
2023-02-16T08:05:14.385Z,95663.56
2023-02-16T08:07:41.965Z,95680.75
2023-02-16T08:10:09.656Z,95674.91
2023-02-16T08:12:37.498Z,95686.34
2023-02-16T08:15:04.905Z,95670.50
2023-02-16T08:17:31.778Z,95676.72
2023-02-16T08:19:58.547Z,95655.97
2023-02-16T08:22:25.622Z,95679.84
2023-02-16T08:24:54.051Z,95666.63
2023-02-16T08:27:21.430Z,95662.34
2023-02-16T08:29:48.205Z,95671.22
2023-02-16T08:32:15.145Z,95675.44
2023-02-16T08:34:43.497Z,95658.91
2023-02-16T08:37:13.053Z,95667.50
2023-02-16T08:39:40.207Z,95685.19
2023-02-16T08:42:07.122Z,95680.25
2023-02-16T08:44:34.287Z,95666.06
2023-02-16T08:47:01.571Z,95663.41
2023-02-16T08:49:28.658Z,95666.59
2023-02-16T08:51:58.779Z,95656.75
2023-02-16T08:54:30.405Z,95672.19
2023-02-16T08:56:59.116Z,95663.19
2023-02-16T08:59:28.635Z,95657.50
2023-02-16T09:01:58.323Z,95654.84
2023-02-16T09:04:27.630Z,95667.38
2023-02-16T09:06:54.861Z,95678.22
2023-02-16T09:09:21.941Z,95680.00
2023-02-16T09:11:49.615Z,95679.88
2023-02-16T09:14:19.364Z,95669.38
2023-02-16T09:16:46.589Z,95661.69
2023-02-16T09:19:17.483Z,95669.88
2023-02-16T09:21:45.230Z,95659.22
2023-02-16T09:24:11.993Z,95654.38
2023-02-16T09:26:42.677Z,95653.13
2023-02-16T09:29:12.585Z,95661.00
2023-02-16T09:31:40.527Z,95651.19
2023-02-16T09:34:19.233Z,95646.81
2023-02-16T09:36:47.415Z,95625.19
2023-02-16T09:39:14.906Z,95644.38
2023-02-16T09:41:41.628Z,95647.69
2023-02-16T09:44:38.105Z,95649.03
2023-02-16T09:47:22.252Z,95645.31
2023-02-16T09:49:49.731Z,95643.06
2023-02-16T09:52:40.467Z,95650.28
2023-02-16T09:55:20.825Z,95633.53
2023-02-16T09:58:13.073Z,95646.44
2023-02-16T10:00:57.602Z,95639.38
2023-02-16T10:04:01.210Z,95610.66
2023-02-16T10:06:34.341Z,95625.44
2023-02-16T10:09:11.954Z,95632.91
2023-02-16T10:11:46.924Z,95632.44
2023-02-16T10:14:25.768Z,95635.41
2023-02-16T10:17:20.736Z,95636.13
2023-02-16T10:19:57.486Z,95629.09
2023-02-16T10:22:38.685Z,95633.41
2023-02-16T10:25:14.072Z,95630.13
2023-02-16T10:27:45.825Z,95628.72
2023-02-16T10:30:23.277Z,95611.03
2023-02-16T10:33:15.920Z,95613.72
2023-02-16T10:35:53.868Z,95627.91
2023-02-16T10:38:49.595Z,95619.72
2023-02-16T10:41:37.355Z,95620.63
2023-02-16T10:44:31.973Z,95622.00
2023-02-16T10:47:04.585Z,95606.63
2023-02-16T10:49:33.226Z,95604.00
2023-02-16T10:52:03.020Z,95599.44
2023-02-16T10:54:32.580Z,95610.53
2023-02-16T10:57:07.137Z,95593.09
2023-02-16T10:59:43.389Z,95596.66
2023-02-16T11:02:29.068Z,95587.34
2023-02-16T11:04:58.298Z,95594.03
2023-02-16T11:07:28.567Z,95594.91
2023-02-16T11:10:04.234Z,95577.03
2023-02-16T11:12:36.077Z,95594.81
2023-02-16T11:15:07.234Z,95592.69
2023-02-16T11:17:52.663Z,95585.94
2023-02-16T11:20:45.885Z,95579.16
2023-02-16T11:23:37.774Z,95581.25
2023-02-16T11:26:10.284Z,95582.03
2023-02-16T11:28:41.079Z,95576.97
2023-02-16T11:31:27.731Z,95572.44
2023-02-16T11:33:58.252Z,95580.53
2023-02-16T11:36:33.606Z,95563.47
2023-02-16T11:39:18.395Z,95559.53
2023-02-16T11:42:05.517Z,95557.50
2023-02-16T11:44:38.434Z,95566.28
2023-02-16T11:47:31.961Z,95561.00
2023-02-16T11:50:19.405Z,95558.63
2023-02-16T11:52:52.905Z,95552.84
2023-02-16T11:55:36.103Z,95549.13
2023-02-16T11:58:17.925Z,95541.41
2023-02-16T12:01:08.661Z,95532.72
2023-02-16T12:04:03.748Z,95534.13
2023-02-16T12:07:03.952Z,95537.91
2023-02-16T12:09:57.600Z,95529.38
2023-02-16T12:12:59.611Z,95526.75
2023-02-16T12:16:12.801Z,95521.84
2023-02-16T12:18:57.605Z,95510.16
2023-02-16T12:21:37.963Z,95509.09
2023-02-16T12:24:48.244Z,95510.94
2023-02-16T12:27:39.963Z,95509.91
2023-02-16T12:30:34.556Z,95506.78
2023-02-16T12:33:08.164Z,95506.94
2023-02-16T12:36:11.046Z,95498.50
2023-02-16T12:39:08.491Z,95491.38
2023-02-16T12:41:56.662Z,95486.47
2023-02-16T12:44:46.170Z,95492.41
2023-02-16T12:47:35.381Z,95451.13
2023-02-16T12:50:05.115Z,95477.59
2023-02-16T12:52:41.982Z,95469.66
2023-02-16T12:55:51.171Z,95474.59
2023-02-16T12:58:33.961Z,95473.50
2023-02-16T13:01:30.398Z,95461.75
2023-02-16T13:03:59.629Z,95466.00
2023-02-16T13:06:41.188Z,95463.38
2023-02-16T13:09:34.205Z,95451.50
2023-02-16T13:12:50.315Z,95449.53
2023-02-16T13:15:28.168Z,95446.03
2023-02-16T13:18:18.530Z,95452.31
2023-02-16T13:20:51.035Z,95440.25
2023-02-16T13:23:41.957Z,95457.25
2023-02-16T13:26:42.205Z,95444.91
2023-02-16T13:29:26.810Z,95446.56
2023-02-16T13:32:25.344Z,95449.19
2023-02-16T13:35:30.166Z,95437.97
2023-02-16T13:38:24.487Z,95433.66
2023-02-16T13:41:20.074Z,95429.13
2023-02-16T13:43:56.250Z,95425.00
2023-02-16T13:46:38.572Z,95430.53
2023-02-16T13:49:06.683Z,95428.88
2023-02-16T13:51:46.374Z,95429.03
2023-02-16T13:54:28.773Z,95432.28
2023-02-16T13:56:56.144Z,95434.75
2023-02-16T13:59:22.818Z,95439.53
2023-02-16T14:01:54.998Z,95431.78
2023-02-16T14:04:27.373Z,95437.91
2023-02-16T14:07:03.268Z,95435.84
2023-02-16T14:09:38.906Z,95441.81
2023-02-16T14:12:16.975Z,95440.53
2023-02-16T14:14:43.635Z,95450.47
2023-02-16T14:17:19.439Z,95452.25
2023-02-16T14:19:58.334Z,95444.13
2023-02-16T14:22:49.656Z,95447.06
2023-02-16T14:25:22.477Z,95443.78
2023-02-16T14:27:54.258Z,95445.84
2023-02-16T14:30:35.788Z,95441.41
2023-02-16T14:33:17.116Z,95440.13
2023-02-16T14:36:00.528Z,95442.44
2023-02-16T14:38:36.046Z,95442.53
2023-02-16T14:41:08.893Z,95427.34
2023-02-16T14:43:45.797Z,95449.72
2023-02-16T14:46:42.979Z,95447.69
2023-02-16T14:49:38.872Z,95445.53
2023-02-16T14:52:47.568Z,95448.50
2023-02-16T14:55:54.388Z,95458.09
2023-02-16T14:58:41.491Z,95453.91
2023-02-16T15:01:19.174Z,95457.72
2023-02-16T15:03:54.786Z,95440.69
2023-02-16T15:06:53.910Z,95450.22
2023-02-16T15:09:26.297Z,95437.06
2023-02-16T15:12:16.628Z,95460.56
2023-02-16T15:14:47.341Z,95470.25
2023-02-16T15:17:36.784Z,95456.56
2023-02-16T15:20:34.289Z,95459.47
2023-02-16T15:23:08.028Z,95453.13
2023-02-16T15:25:40.823Z,95466.69
2023-02-16T15:28:10.681Z,95460.38
2023-02-16T15:30:41.794Z,95468.78
2023-02-16T15:33:42.938Z,95456.22
2023-02-16T15:36:16.389Z,95457.13
2023-02-16T15:38:57.332Z,95442.13
2023-02-16T15:41:54.770Z,95451.84
2023-02-16T15:44:36.489Z,95448.47
2023-02-16T15:47:27.287Z,95464.72
2023-02-16T15:49:54.726Z,95435.47
2023-02-16T15:52:34.084Z,95471.94
2023-02-16T15:55:03.347Z,95471.19
2023-02-16T15:57:36.807Z,95449.16
2023-02-16T16:00:15.901Z,95462.69
2023-02-16T16:02:50.404Z,95476.22
2023-02-16T16:05:26.655Z,95455.53
2023-02-16T16:07:55.305Z,95448.28
2023-02-16T16:10:29.278Z,95436.72
2023-02-16T16:13:09.011Z,95449.34
2023-02-16T16:15:42.653Z,95447.06
2023-02-16T16:18:39.219Z,95438.72
2023-02-16T16:21:21.612Z,95465.22
2023-02-16T16:24:04.476Z,95454.84
2023-02-16T16:26:51.193Z,95445.06
2023-02-16T16:29:48.047Z,95449.50
2023-02-16T16:32:25.185Z,95459.34
2023-02-16T16:34:52.248Z,95447.78
2023-02-16T16:37:37.418Z,95447.34
2023-02-16T16:40:31.013Z,95452.66
2023-02-16T16:43:03.351Z,95459.03
2023-02-16T16:45:45.272Z,95447.72
2023-02-16T16:48:25.702Z,95442.34
2023-02-16T16:51:12.210Z,95458.78
2023-02-16T16:53:43.429Z,95453.41
2023-02-16T16:56:14.423Z,95449.69
2023-02-16T16:58:41.821Z,95446.13
2023-02-16T17:01:11.523Z,95425.41
2023-02-16T17:03:38.329Z,95442.56
2023-02-16T17:06:06.901Z,95458.00
2023-02-16T17:12:22.371Z,95439.50
2023-02-16T17:14:49.273Z,95475.41
2023-02-16T17:17:16.015Z,95449.97
2023-02-16T17:19:42.824Z,95473.84
2023-02-16T17:22:17.851Z,95475.09
2023-02-16T17:24:45.106Z,95479.66
2023-02-16T17:27:12.508Z,95448.94
2023-02-16T17:29:42.802Z,95487.03
2023-02-16T17:32:09.802Z,95477.22
2023-02-16T17:34:36.594Z,95475.84
2023-02-16T17:37:09.171Z,95478.31
2023-02-16T17:39:36.399Z,95463.66
2023-02-16T17:42:03.319Z,95487.63
2023-02-16T17:44:30.171Z,95485.38
2023-02-16T17:46:57.043Z,95481.66
2023-02-16T17:49:23.961Z,95472.19
2023-02-16T17:51:50.755Z,95480.50
2023-02-16T17:54:17.615Z,95480.34
2023-02-16T17:56:45.883Z,95486.84
2023-02-16T17:59:17.622Z,95484.75
2023-02-16T18:01:45.193Z,95475.88
2023-02-16T18:04:12.186Z,95478.06
2023-02-16T18:06:38.997Z,95470.09
2023-02-16T18:09:05.812Z,95501.69
2023-02-16T18:11:32.552Z,95486.06
2023-02-16T18:13:59.304Z,95491.56
2023-02-16T18:16:28.001Z,95508.53
2023-02-16T18:18:55.282Z,95503.69
2023-02-16T18:21:22.026Z,95509.19
2023-02-16T18:23:48.790Z,95509.28
2023-02-16T18:26:16.665Z,95495.69
2023-02-16T18:28:44.095Z,95508.22
2023-02-16T18:31:11.919Z,95506.22
2023-02-16T18:33:38.773Z,95484.09
2023-02-16T18:36:06.226Z,95493.06
2023-02-16T18:38:33.400Z,95496.06
2023-02-16T18:41:00.172Z,95498.19
2023-02-16T18:43:26.949Z,95492.47
2023-02-16T18:45:53.857Z,95482.72
2023-02-16T18:48:21.811Z,95490.31
2023-02-16T18:50:48.827Z,95478.94
2023-02-16T18:53:15.629Z,95502.13
2023-02-16T18:55:42.417Z,95510.78
2023-02-16T18:58:12.780Z,95514.81
2023-02-16T19:00:39.644Z,95515.53
2023-02-16T19:03:06.663Z,95512.06
2023-02-16T19:05:34.196Z,95515.09
2023-02-16T19:08:00.970Z,95512.47
2023-02-16T19:11:18.247Z,95519.94
2023-02-16T19:13:45.202Z,95476.75
2023-02-16T19:16:12.144Z,95518.53
2023-02-16T19:18:38.977Z,95531.38
2023-02-16T19:21:08.832Z,95515.69
2023-02-16T19:23:36.114Z,95538.84
2023-02-16T19:26:12.877Z,95521.03
2023-02-16T19:28:40.314Z,95533.28
2023-02-16T19:31:15.803Z,95519.72
2023-02-16T19:33:42.644Z,95531.59
2023-02-16T19:36:11.120Z,95545.25
2023-02-16T19:38:38.615Z,95547.66
2023-02-16T19:41:16.521Z,95543.50
2023-02-16T19:43:44.736Z,95540.41
2023-02-16T19:46:12.543Z,95535.66
2023-02-16T19:48:39.881Z,95546.13
2023-02-16T19:51:08.285Z,95553.81
2023-02-16T19:53:37.721Z,95541.59
2023-02-16T19:56:16.445Z,95507.78
2023-02-16T19:58:48.663Z,95534.97
2023-02-16T20:01:19.850Z,95527.00
2023-02-16T20:04:43.462Z,95544.56
2023-02-16T20:07:10.394Z,95521.41
2023-02-16T20:09:37.520Z,95546.81
2023-02-16T20:12:05.293Z,95553.97
2023-02-16T20:14:32.136Z,95517.75
2023-02-16T20:16:58.930Z,95525.22
2023-02-16T20:19:25.654Z,95536.75
2023-02-16T20:21:52.436Z,95542.56
2023-02-16T20:24:20.525Z,95542.56
2023-02-16T20:26:49.159Z,95527.13
2023-02-16T20:29:18.655Z,95523.78
2023-02-16T20:31:56.131Z,95498.34
2023-02-16T20:34:26.108Z,95544.09
2023-02-16T20:36:53.126Z,95511.44
2023-02-16T20:39:20.865Z,95512.84
2023-02-16T20:41:47.670Z,95531.84
2023-02-16T20:44:16.993Z,95538.75
2023-02-16T20:46:44.173Z,95542.28
2023-02-16T20:49:11.010Z,95538.00
2023-02-16T20:51:38.362Z,95520.91
2023-02-16T20:54:05.678Z,95525.19
2023-02-16T20:56:32.435Z,95539.44
2023-02-16T20:58:59.595Z,95525.44
2023-02-16T21:01:31.561Z,95540.72
2023-02-16T21:04:00.510Z,95538.00
2023-02-16T21:06:28.517Z,95526.13
2023-02-16T21:08:55.733Z,95531.38
2023-02-16T21:11:22.741Z,95515.69
2023-02-16T21:13:49.587Z,95528.97
2023-02-16T21:16:18.030Z,95522.06
2023-02-16T21:18:44.899Z,95525.88
2023-02-16T21:21:15.791Z,95528.97
2023-02-16T21:23:49.198Z,95527.03
2023-02-16T21:26:17.448Z,95535.81
2023-02-16T21:28:44.239Z,95525.59
2023-02-16T21:31:15.148Z,95529.53
2023-02-16T21:33:42.152Z,95526.00
2023-02-16T21:36:16.670Z,95527.34
2023-02-16T21:38:44.414Z,95531.13
2023-02-16T21:41:30.414Z,95524.94
2023-02-16T21:44:18.373Z,95527.59
2023-02-16T21:46:47.325Z,95523.44
2023-02-16T21:49:19.895Z,95513.97
2023-02-16T21:51:48.172Z,95522.75
2023-02-16T21:54:17.793Z,95516.22
2023-02-16T21:56:50.346Z,95522.75
2023-02-16T21:59:24.593Z,95504.47
2023-02-16T22:01:52.023Z,95518.47
2023-02-16T22:04:22.061Z,95504.81
2023-02-16T22:06:51.126Z,95518.47
2023-02-16T22:09:23.044Z,95522.88
2023-02-16T22:11:51.090Z,95518.84
2023-02-16T22:14:18.293Z,95512.06
2023-02-16T22:16:47.130Z,95527.00
2023-02-16T22:19:17.101Z,95523.06
2023-02-16T22:21:47.665Z,95515.56
2023-02-16T22:24:17.511Z,95508.47
2023-02-16T22:26:45.424Z,95513.22
2023-02-16T22:29:12.976Z,95506.78
2023-02-16T22:31:46.247Z,95521.97
2023-02-16T22:34:16.296Z,95512.16
2023-02-16T22:36:43.221Z,95500.13
2023-02-16T22:39:13.558Z,95498.69
2023-02-16T22:41:40.438Z,95491.22
2023-02-16T22:44:07.775Z,95513.50
2023-02-16T22:46:35.388Z,95490.97
2023-02-16T22:49:02.205Z,95493.13
2023-02-16T22:51:30.689Z,95507.78
2023-02-16T22:54:02.092Z,95501.25
2023-02-16T22:56:30.342Z,95509.38
2023-02-16T22:58:58.908Z,95491.28
2023-02-16T23:01:28.267Z,95505.63
2023-02-16T23:03:57.927Z,95502.69
2023-02-16T23:06:37.015Z,95499.09
2023-02-16T23:09:08.256Z,95495.31
2023-02-16T23:11:36.379Z,95505.44
2023-02-16T23:14:04.812Z,95496.63
2023-02-16T23:16:32.181Z,95502.94
2023-02-16T23:18:59.949Z,95488.19
2023-02-16T23:21:32.633Z,95496.72
2023-02-16T23:24:00.229Z,95474.28
2023-02-16T23:26:30.724Z,95481.13
2023-02-16T23:29:01.872Z,95475.34
2023-02-16T23:31:33.380Z,95499.78
2023-02-16T23:34:02.444Z,95484.81
2023-02-16T23:36:30.436Z,95498.50
2023-02-16T23:39:02.497Z,95503.72
2023-02-16T23:41:29.370Z,95509.69
2023-02-16T23:43:56.618Z,95496.13
2023-02-16T23:46:23.924Z,95503.16
2023-02-16T23:48:50.957Z,95495.34
2023-02-16T23:51:17.769Z,95509.50
2023-02-16T23:53:44.844Z,95502.00
2023-02-16T23:56:16.765Z,95513.63
2023-02-16T23:58:47.757Z,95505.34
